createdAt,value
2023-04-16T00:00:28.369Z,0.00
2023-04-16T00:05:27.980Z,0.00
2023-04-16T00:10:17.430Z,0.00
2023-04-16T00:15:23.221Z,0.00
2023-04-16T00:20:29.114Z,0.00
2023-04-16T00:25:18.143Z,0.00
2023-04-16T00:30:24.386Z,0.00
2023-04-16T00:35:30.222Z,0.00
2023-04-16T00:40:20.397Z,0.00
2023-04-16T00:45:24.762Z,0.00
2023-04-16T00:50:30.966Z,0.00
2023-04-16T00:55:20.041Z,0.00
2023-04-16T01:00:27.633Z,0.00
2023-04-16T01:05:32.325Z,0.00
2023-04-16T01:10:21.093Z,0.00
2023-04-16T01:15:27.389Z,0.00
2023-04-16T01:20:33.394Z,0.00
2023-04-16T01:25:22.288Z,0.00
2023-04-16T01:30:28.416Z,0.00
2023-04-16T01:35:17.570Z,0.00
2023-04-16T01:40:25.078Z,0.00
2023-04-16T01:45:29.414Z,0.00
2023-04-16T01:50:18.390Z,0.00
2023-04-16T01:55:24.477Z,0.00
2023-04-16T02:00:35.169Z,0.00
2023-04-16T02:05:19.207Z,0.00
2023-04-16T02:10:25.370Z,0.00
2023-04-16T02:15:31.601Z,0.00
2023-04-16T02:20:21.565Z,0.00
2023-04-16T02:25:26.481Z,0.00
2023-04-16T02:30:32.575Z,0.00
2023-04-16T02:35:21.567Z,0.00
2023-04-16T02:40:27.657Z,0.00
2023-04-16T02:45:16.956Z,0.00
2023-04-16T02:50:23.117Z,0.00
2023-04-16T02:55:28.893Z,0.00
2023-04-16T03:00:18.129Z,0.00
2023-04-16T03:05:23.414Z,0.00
2023-04-16T03:10:29.719Z,0.00
2023-04-16T03:15:18.508Z,0.00
2023-04-16T03:20:25.634Z,0.00
2023-04-16T03:25:30.620Z,0.00
2023-04-16T03:30:19.713Z,0.00
2023-04-16T03:35:25.915Z,0.00
2023-04-16T03:40:32.017Z,0.00
2023-04-16T03:45:20.752Z,0.00
2023-04-16T03:50:26.679Z,0.00
2023-04-16T03:55:32.609Z,0.00
2023-04-16T04:00:26.032Z,0.00
2023-04-16T04:05:28.073Z,0.00
2023-04-16T04:10:17.046Z,0.00
2023-04-16T04:15:23.245Z,0.00
2023-04-16T04:20:29.054Z,0.00
2023-04-16T04:25:18.022Z,0.57
2023-04-16T04:30:24.341Z,1.99
2023-04-16T04:35:30.361Z,3.61
2023-04-16T04:40:20.388Z,5.61
2023-04-16T04:45:25.151Z,8.97
2023-04-16T04:50:31.218Z,13.59
2023-04-16T04:55:20.025Z,16.50
2023-04-16T05:00:27.355Z,22.81
2023-04-16T05:05:31.399Z,27.49
2023-04-16T05:10:20.257Z,25.30
2023-04-16T05:15:26.638Z,24.92
2023-04-16T05:20:32.679Z,25.82
2023-04-16T05:25:21.664Z,28.33
2023-04-16T05:30:27.564Z,24.50
2023-04-16T05:35:17.698Z,26.08
2023-04-16T05:40:25.358Z,29.22
2023-04-16T05:45:28.527Z,30.26
2023-04-16T05:50:17.390Z,32.43
2023-04-16T05:55:23.633Z,33.33
2023-04-16T06:00:34.008Z,31.44
2023-04-16T06:05:19.401Z,30.14
2023-04-16T06:10:25.173Z,28.95
2023-04-16T06:15:31.283Z,31.52
2023-04-16T06:20:21.415Z,38.30
2023-04-16T06:25:26.241Z,40.52
2023-04-16T06:30:32.453Z,43.15
2023-04-16T06:35:21.732Z,49.71
2023-04-16T06:40:27.618Z,51.56
2023-04-16T06:45:33.009Z,43.08
2023-04-16T06:50:21.833Z,42.68
2023-04-16T06:55:27.926Z,42.10
2023-04-16T07:00:17.280Z,44.61
2023-04-16T07:05:22.528Z,52.05
2023-04-16T07:10:28.545Z,63.58
2023-04-16T07:15:17.426Z,83.90
2023-04-16T07:20:23.907Z,94.81
2023-04-16T07:25:29.518Z,101.97
2023-04-16T07:30:18.806Z,101.69
2023-04-16T07:35:24.659Z,95.52
2023-04-16T07:40:31.089Z,102.54
2023-04-16T07:45:19.683Z,124.55
2023-04-16T07:50:25.517Z,141.01
2023-04-16T07:55:32.089Z,152.66
2023-04-16T08:00:24.787Z,156.78
2023-04-16T08:05:27.123Z,166.84
2023-04-16T08:10:33.207Z,208.23
2023-04-16T08:15:22.098Z,251.96
2023-04-16T08:20:28.255Z,252.03
2023-04-16T08:25:17.220Z,268.89
2023-04-16T08:30:23.466Z,284.80
2023-04-16T08:35:29.328Z,285.23
2023-04-16T08:40:19.586Z,330.14
2023-04-16T08:45:24.210Z,306.59
2023-04-16T08:50:30.084Z,335.06
2023-04-16T08:55:19.121Z,352.54
2023-04-16T09:00:27.116Z,368.97
2023-04-16T09:05:30.504Z,321.49
2023-04-16T09:10:19.618Z,284.00
2023-04-16T09:15:25.914Z,240.60
2023-04-16T09:20:31.595Z,262.31
2023-04-16T09:25:20.540Z,299.50
2023-04-16T09:30:26.808Z,294.33
2023-04-16T09:35:32.662Z,314.00
2023-04-16T09:40:23.402Z,286.05
2023-04-16T09:45:27.758Z,292.99
2023-04-16T09:50:18.280Z,288.22
2023-04-16T09:55:22.659Z,265.64
2023-04-16T10:00:32.377Z,253.81
2023-04-16T10:05:18.102Z,265.80
2023-04-16T10:10:24.292Z,315.49
2023-04-16T10:15:30.230Z,343.46
2023-04-16T10:20:21.308Z,359.01
2023-04-16T10:25:25.331Z,347.91
2023-04-16T10:30:31.410Z,342.64
2023-04-16T10:35:20.381Z,347.68
2023-04-16T10:40:26.566Z,366.92
2023-04-16T10:45:32.238Z,359.03
2023-04-16T10:50:21.060Z,338.62
2023-04-16T10:55:27.471Z,312.89
2023-04-16T11:00:33.593Z,265.12
2023-04-16T11:05:21.735Z,208.30
2023-04-16T11:10:27.583Z,175.30
2023-04-16T11:15:16.721Z,143.45
2023-04-16T11:20:23.198Z,128.56
2023-04-16T11:25:28.761Z,139.93
2023-04-16T11:30:17.814Z,153.24
2023-04-16T11:35:23.825Z,153.30
2023-04-16T11:40:31.821Z,145.81
2023-04-16T11:45:18.673Z,137.33
2023-04-16T11:50:24.698Z,131.98
2023-04-16T11:55:30.587Z,138.23
2023-04-16T12:00:24.385Z,154.86
2023-04-16T12:05:26.153Z,178.68
2023-04-16T12:10:32.814Z,183.40
2023-04-16T12:15:21.262Z,189.16
2023-04-16T12:20:27.633Z,203.45
2023-04-16T12:25:34.380Z,228.13
2023-04-16T12:30:22.462Z,251.16
2023-04-16T12:35:28.487Z,243.28
2023-04-16T12:40:19.079Z,227.22
2023-04-16T12:45:23.158Z,255.67
2023-04-16T12:50:29.049Z,280.07
2023-04-16T12:55:18.108Z,265.46
2023-04-16T13:00:26.626Z,286.52
2023-04-16T13:05:29.547Z,291.92
2023-04-16T13:10:18.615Z,295.77
2023-04-16T13:15:24.838Z,312.36
2023-04-16T13:20:30.690Z,302.48
2023-04-16T13:25:19.683Z,313.55
2023-04-16T13:30:26.008Z,298.16
2023-04-16T13:35:32.003Z,284.17
2023-04-16T13:40:22.443Z,286.59
2023-04-16T13:45:26.769Z,254.59
2023-04-16T13:50:32.840Z,277.82
2023-04-16T13:55:21.684Z,308.29
2023-04-16T14:00:31.607Z,359.36
2023-04-16T14:05:17.187Z,289.42
2023-04-16T14:10:22.981Z,296.58
2023-04-16T14:15:29.235Z,314.06
2023-04-16T14:20:18.156Z,294.86
2023-04-16T14:25:24.173Z,362.64
2023-04-16T14:30:30.602Z,333.27
2023-04-16T14:35:19.273Z,273.57
2023-04-16T14:40:25.557Z,250.74
2023-04-16T14:45:31.428Z,267.53
2023-04-16T14:50:20.394Z,300.71
2023-04-16T14:55:26.460Z,341.67
2023-04-16T15:00:32.566Z,345.39
2023-04-16T15:05:21.930Z,301.79
2023-04-16T15:10:28.185Z,278.88
2023-04-16T15:15:16.976Z,214.72
2023-04-16T15:20:24.526Z,242.37
2023-04-16T15:25:29.067Z,327.69
2023-04-16T15:30:17.976Z,234.72
2023-04-16T15:35:24.094Z,202.23
2023-04-16T15:40:30.162Z,193.03
2023-04-16T15:45:18.833Z,182.27
2023-04-16T15:50:24.631Z,181.37
2023-04-16T15:55:30.732Z,163.67
2023-04-16T16:00:26.262Z,160.10
2023-04-16T16:05:26.178Z,145.66
2023-04-16T16:10:32.391Z,131.24
2023-04-16T16:15:21.380Z,127.51
2023-04-16T16:20:27.532Z,127.42
2023-04-16T16:25:33.570Z,143.64
2023-04-16T16:30:22.600Z,160.20
2023-04-16T16:35:28.728Z,169.69
2023-04-16T16:40:17.966Z,165.51
2023-04-16T16:45:23.037Z,155.24
2023-04-16T16:50:29.262Z,132.96
2023-04-16T16:55:18.795Z,116.27
2023-04-16T17:00:24.433Z,109.74
2023-04-16T17:05:29.729Z,97.44
2023-04-16T17:10:18.597Z,97.62
2023-04-16T17:15:24.828Z,70.47
2023-04-16T17:20:30.862Z,24.73
2023-04-16T17:25:19.955Z,4.94
2023-04-16T17:30:26.052Z,1.93
2023-04-16T17:35:32.155Z,1.51
2023-04-16T17:40:21.012Z,1.66
2023-04-16T17:45:28.236Z,1.56
2023-04-16T17:50:32.543Z,1.37
2023-04-16T17:55:21.633Z,1.08
2023-04-16T18:00:30.287Z,0.50
2023-04-16T18:05:16.862Z,0.02
2023-04-16T18:10:23.076Z,0.00
2023-04-16T18:15:28.966Z,0.00
2023-04-16T18:20:19.117Z,0.00
2023-04-16T18:25:33.932Z,0.00
2023-04-16T18:30:30.144Z,0.00
2023-04-16T18:35:19.172Z,0.00
2023-04-16T18:40:25.444Z,0.00
2023-04-16T18:45:30.944Z,0.00
2023-04-16T18:50:19.997Z,0.00
2023-04-16T18:55:26.081Z,0.00
2023-04-16T19:00:32.801Z,0.00
2023-04-16T19:05:20.440Z,0.00
2023-04-16T19:10:26.533Z,0.00
2023-04-16T19:15:34.833Z,0.00
2023-04-16T19:20:23.380Z,0.00
2023-04-16T19:25:27.893Z,0.00
2023-04-16T19:30:16.723Z,0.00
2023-04-16T19:35:22.999Z,0.00
2023-04-16T19:40:28.964Z,0.00
2023-04-16T19:45:17.482Z,0.00
2023-04-16T19:50:23.536Z,0.00
2023-04-16T19:55:29.561Z,0.00
2023-04-16T20:00:21.925Z,0.00
2023-04-16T20:05:24.977Z,0.00
2023-04-16T20:10:31.431Z,0.00
2023-04-16T20:15:20.058Z,0.00
2023-04-16T20:20:26.107Z,0.00
2023-04-16T20:25:32.344Z,0.00
2023-04-16T20:30:21.255Z,0.00
2023-04-16T20:35:27.335Z,0.00
2023-04-16T20:40:33.604Z,0.00
2023-04-16T20:45:21.863Z,0.00
2023-04-16T20:50:27.945Z,0.00
2023-04-16T20:55:16.980Z,0.00
2023-04-16T21:00:23.281Z,0.00
2023-04-16T21:05:28.505Z,0.00
2023-04-16T21:10:17.511Z,0.00
2023-04-16T21:15:23.574Z,0.00
2023-04-16T21:20:30.670Z,0.00
2023-04-16T21:25:18.651Z,0.00
2023-04-16T21:30:24.777Z,0.00
2023-04-16T21:35:30.824Z,0.00
2023-04-16T21:40:20.869Z,0.00
2023-04-16T21:45:25.695Z,0.00
2023-04-16T21:50:31.487Z,0.00
2023-04-16T21:55:20.530Z,0.00
2023-04-16T22:00:32.557Z,0.00
2023-04-16T22:05:32.941Z,0.00
2023-04-16T22:10:22.411Z,0.00
2023-04-16T22:15:27.924Z,0.00
2023-04-16T22:20:17.087Z,0.00
2023-04-16T22:25:22.981Z,0.00
2023-04-16T22:30:29.520Z,0.00
2023-04-16T22:35:18.049Z,0.00
2023-04-16T22:40:25.176Z,0.00
2023-04-16T22:45:30.305Z,0.00
2023-04-16T22:50:19.089Z,0.00
2023-04-16T22:55:25.140Z,0.00
2023-04-16T23:00:31.357Z,0.00
2023-04-16T23:05:19.547Z,0.00
2023-04-16T23:10:25.906Z,0.00
2023-04-16T23:15:31.695Z,0.00
2023-04-16T23:20:21.554Z,0.00
2023-04-16T23:25:26.932Z,0.00
2023-04-16T23:30:33.035Z,0.00
2023-04-16T23:35:21.857Z,0.00
2023-04-16T23:40:27.982Z,0.00
2023-04-16T23:45:16.696Z,0.00
2023-04-16T23:50:24.210Z,0.00
2023-04-16T23:55:28.631Z,0.00
